Wrangell, AK

4:06 PM AKST on February 13, 2016 (GMT -0900)
Wrangell | | Change Station
CLOSE
Current Station
Airport
Location: Wrangell,
Elevation: 43 ft
Nearby Weather Stations

Elev 43 ft 56.48 °N, 132.37 °W | Updated 10 minutes ago

Overcast
Overcast
45 °F
Feels Like 43 °F
N
4
Wind Variable Wind from North

Today
High -- | Low -- °F
--% Chance of Precip.
Yesterday
High -- | Low -- °F
Precip. -- in
Pressure 29.65 in
Visibility 10.0 miles
Clouds Few 3200 ft
Mostly Cloudy 4800 ft
Overcast 7000 ft
Windchill 43 °F
Dew Point 36 °F
Humidity 71%
Rainfall 0.01 in
Snow Depth Not available.
7:21 AM 4:47 PM
Waxing Crescent, 36% visible
METAR PAWG 140056Z 36003KT 10SM FEW032 BKN048 OVC070 07/02 A2965 RMK AO1 WEA: -RA (MCQ)
Pressure 29.65 in
Visibility 10.0 miles
Clouds Few 3200 ft
Mostly Cloudy 4800 ft
Overcast 7000 ft
Windchill 43 °F
Dew Point 36 °F
Humidity 71%
Rainfall 0.01 in
Snow Depth Not available.
7:21 AM 4:47 PM
Waxing Crescent, 36% visible
METAR PAWG 140056Z 36003KT 10SM FEW032 BKN048 OVC070 07/02 A2965 RMK AO1 WEA: -RA (MCQ)

10-Day Weather Forecast

Almanac

Astronomy

Feb. 13, 2016 Rise Set
Actual Time
Civil Twilight
Nautical Twilight
Astronomical Twilight
Moon
Length of Visible Light
Length of Day
Tomorrow will be .
, % of the Moon is Illuminated

Today's Extremes

State Highs State Lows

Community

WunderPhotos

Upload Photos

1,892,720 photos uploaded!

WunderBlog® & News

Nearby

Air Quality

  Air Quality AQ Index Pollutant
Not available.

Snow Depth

Station Depth Elevation

Earthquake Activity

City Distance Mag. Time & Date
Minimum magnitude displayed is 2.5.

Coastal Water Temperatures

Place Temperature

Stations

Nearby Weather Stations

Station Location Temp. Windchill Dew Point Humidity Wind Precip. Elev Updated Type
                   

Watches & Warnings

There are currently no watches in effect.